sensor_id;sensor_type;location;lat;lon;timestamp;P1;durP1;ratioP1;P2;durP2;ratioP2
30519;SDS011;17300;50.374;8.006;2023-05-10T00:00:53;0.20;;;0.20;;
30519;SDS011;17300;50.374;8.006;2023-05-10T00:03:20;0.37;;;0.20;;
30519;SDS011;17300;50.374;8.006;2023-05-10T00:05:47;0.10;;;0.10;;
30519;SDS011;17300;50.374;8.006;2023-05-10T00:08:13;0.27;;;0.20;;
30519;SDS011;17300;50.374;8.006;2023-05-10T00:10:40;0.87;;;0.20;;
30519;SDS011;17300;50.374;8.006;2023-05-10T00:13:08;0.20;;;0.20;;
30519;SDS011;17300;50.374;8.006;2023-05-10T00:15:35;0.33;;;0.30;;
30519;SDS011;17300;50.374;8.006;2023-05-10T00:18:01;0.30;;;0.30;;
30519;SDS011;17300;50.374;8.006;2023-05-10T00:20:28;0.73;;;0.20;;
30519;SDS011;17300;50.374;8.006;2023-05-10T00:22:55;5.30;;;0.50;;
30519;SDS011;17300;50.374;8.006;2023-05-10T00:25:21;0.10;;;0.10;;
30519;SDS011;17300;50.374;8.006;2023-05-10T00:27:48;0.40;;;0.20;;
30519;SDS011;17300;50.374;8.006;2023-05-10T00:30:16;0.73;;;0.30;;
30519;SDS011;17300;50.374;8.006;2023-05-10T00:32:43;0.10;;;0.10;;
30519;SDS011;17300;50.374;8.006;2023-05-10T00:35:10;0.10;;;0.10;;
30519;SDS011;17300;50.374;8.006;2023-05-10T00:37:37;0.10;;;0.10;;
30519;SDS011;17300;50.374;8.006;2023-05-10T00:40:04;0.83;;;0.10;;
30519;SDS011;17300;50.374;8.006;2023-05-10T00:42:32;0.10;;;0.10;;
30519;SDS011;17300;50.374;8.006;2023-05-10T00:44:58;0.20;;;0.20;;
30519;SDS011;17300;50.374;8.006;2023-05-10T00:47:26;0.20;;;0.20;;
30519;SDS011;17300;50.374;8.006;2023-05-10T00:49:53;1.30;;;0.20;;
30519;SDS011;17300;50.374;8.006;2023-05-10T00:52:20;0.27;;;0.10;;
30519;SDS011;17300;50.374;8.006;2023-05-10T00:54:48;0.10;;;0.10;;
30519;SDS011;17300;50.374;8.006;2023-05-10T00:57:16;0.10;;;0.10;;
30519;SDS011;17300;50.374;8.006;2023-05-10T00:59:42;0.83;;;0.20;;
30519;SDS011;17300;50.374;8.006;2023-05-10T01:02:09;0.47;;;0.30;;
30519;SDS011;17300;50.374;8.006;2023-05-10T01:04:38;0.27;;;0.10;;
30519;SDS011;17300;50.374;8.006;2023-05-10T01:07:05;1.43;;;0.20;;
30519;SDS011;17300;50.374;8.006;2023-05-10T01:09:32;0.97;;;0.20;;
30519;SDS011;17300;50.374;8.006;2023-05-10T01:11:59;0.20;;;0.10;;
30519;SDS011;17300;50.374;8.006;2023-05-10T01:14:28;0.10;;;0.10;;
30519;SDS011;17300;50.374;8.006;2023-05-10T01:16:55;0.83;;;0.10;;
30519;SDS011;17300;50.374;8.006;2023-05-10T01:19:23;5.30;;;0.20;;
30519;SDS011;17300;50.374;8.006;2023-05-10T01:21:55;0.23;;;0.10;;
30519;SDS011;17300;50.374;8.006;2023-05-10T01:27:39;0.10;;;0.10;;
30519;SDS011;17300;50.374;8.006;2023-05-10T01:33:26;0.10;;;0.10;;
30519;SDS011;17300;50.374;8.006;2023-05-10T01:35:58;0.43;;;0.20;;
30519;SDS011;17300;50.374;8.006;2023-05-10T01:38:32;0.30;;;0.20;;
30519;SDS011;17300;50.374;8.006;2023-05-10T01:41:07;0.40;;;0.30;;
30519;SDS011;17300;50.374;8.006;2023-05-10T01:43:43;1.07;;;0.30;;
30519;SDS011;17300;50.374;8.006;2023-05-10T01:46:17;0.30;;;0.30;;
30519;SDS011;17300;50.374;8.006;2023-05-10T01:48:52;0.20;;;0.20;;
30519;SDS011;17300;50.374;8.006;2023-05-10T01:51:23;0.20;;;0.20;;
30519;SDS011;17300;50.374;8.006;2023-05-10T01:53:54;0.63;;;0.30;;
30519;SDS011;17300;50.374;8.006;2023-05-10T01:56:26;0.20;;;0.20;;
30519;SDS011;17300;50.374;8.006;2023-05-10T01:58:56;0.10;;;0.10;;
30519;SDS011;17300;50.374;8.006;2023-05-10T02:01:24;0.30;;;0.30;;
30519;SDS011;17300;50.374;8.006;2023-05-10T02:03:53;0.20;;;0.20;;
30519;SDS011;17300;50.374;8.006;2023-05-10T02:06:21;0.20;;;0.20;;
30519;SDS011;17300;50.374;8.006;2023-05-10T02:08:50;2.00;;;0.47;;
30519;SDS011;17300;50.374;8.006;2023-05-10T02:11:18;0.40;;;0.40;;
30519;SDS011;17300;50.374;8.006;2023-05-10T02:13:47;0.10;;;0.10;;
30519;SDS011;17300;50.374;8.006;2023-05-10T02:16:15;0.57;;;0.30;;
30519;SDS011;17300;50.374;8.006;2023-05-10T02:18:42;0.30;;;0.30;;
30519;SDS011;17300;50.374;8.006;2023-05-10T02:21:12;1.60;;;0.20;;
30519;SDS011;17300;50.374;8.006;2023-05-10T02:23:41;0.20;;;0.20;;
30519;SDS011;17300;50.374;8.006;2023-05-10T02:26:09;0.40;;;0.17;;
30519;SDS011;17300;50.374;8.006;2023-05-10T02:28:38;0.10;;;0.10;;
30519;SDS011;17300;50.374;8.006;2023-05-10T02:31:06;0.43;;;0.30;;
30519;SDS011;17300;50.374;8.006;2023-05-10T02:33:35;0.30;;;0.30;;
30519;SDS011;17300;50.374;8.006;2023-05-10T02:36:05;0.20;;;0.20;;
30519;SDS011;17300;50.374;8.006;2023-05-10T02:38:34;0.20;;;0.20;;
30519;SDS011;17300;50.374;8.006;2023-05-10T02:41:02;0.20;;;0.20;;
30519;SDS011;17300;50.374;8.006;2023-05-10T02:43:31;0.20;;;0.20;;
30519;SDS011;17300;50.374;8.006;2023-05-10T02:45:59;0.30;;;0.20;;
30519;SDS011;17300;50.374;8.006;2023-05-10T02:48:26;0.20;;;0.20;;
30519;SDS011;17300;50.374;8.006;2023-05-10T02:50:53;0.20;;;0.20;;
30519;SDS011;17300;50.374;8.006;2023-05-10T02:53:22;0.20;;;0.20;;
30519;SDS011;17300;50.374;8.006;2023-05-10T02:55:54;0.20;;;0.20;;
30519;SDS011;17300;50.374;8.006;2023-05-10T02:58:24;1.03;;;0.47;;
30519;SDS011;17300;50.374;8.006;2023-05-10T03:00:51;0.40;;;0.20;;
30519;SDS011;17300;50.374;8.006;2023-05-10T03:03:20;0.30;;;0.30;;
30519;SDS011;17300;50.374;8.006;2023-05-10T03:05:47;0.83;;;0.20;;
30519;SDS011;17300;50.374;8.006;2023-05-10T03:08:13;0.20;;;0.20;;
30519;SDS011;17300;50.374;8.006;2023-05-10T03:10:41;2.33;;;0.30;;
30519;SDS011;17300;50.374;8.006;2023-05-10T03:13:16;0.20;;;0.20;;
30519;SDS011;17300;50.374;8.006;2023-05-10T03:15:53;0.20;;;0.20;;
30519;SDS011;17300;50.374;8.006;2023-05-10T03:18:28;0.53;;;0.40;;
30519;SDS011;17300;50.374;8.006;2023-05-10T03:21:00;0.30;;;0.30;;
30519;SDS011;17300;50.374;8.006;2023-05-10T03:23:33;0.60;;;0.40;;
30519;SDS011;17300;50.374;8.006;2023-05-10T03:26:01;0.93;;;0.40;;
30519;SDS011;17300;50.374;8.006;2023-05-10T03:28:31;0.83;;;0.30;;
30519;SDS011;17300;50.374;8.006;2023-05-10T03:31:00;0.30;;;0.30;;
30519;SDS011;17300;50.374;8.006;2023-05-10T03:33:28;1.13;;;0.30;;
30519;SDS011;17300;50.374;8.006;2023-05-10T03:35:55;0.87;;;0.30;;
30519;SDS011;17300;50.374;8.006;2023-05-10T03:38:21;0.40;;;0.20;;
30519;SDS011;17300;50.374;8.006;2023-05-10T03:40:48;0.33;;;0.30;;
30519;SDS011;17300;50.374;8.006;2023-05-10T03:43:15;0.73;;;0.30;;
30519;SDS011;17300;50.374;8.006;2023-05-10T03:45:43;0.30;;;0.30;;
30519;SDS011;17300;50.374;8.006;2023-05-10T03:48:09;0.30;;;0.30;;
30519;SDS011;17300;50.374;8.006;2023-05-10T03:50:38;0.77;;;0.20;;
30519;SDS011;17300;50.374;8.006;2023-05-10T03:53:05;0.47;;;0.20;;
30519;SDS011;17300;50.374;8.006;2023-05-10T03:55:31;0.40;;;0.33;;
30519;SDS011;17300;50.374;8.006;2023-05-10T03:58:01;0.27;;;0.20;;
30519;SDS011;17300;50.374;8.006;2023-05-10T04:00:27;0.77;;;0.40;;
30519;SDS011;17300;50.374;8.006;2023-05-10T04:02:56;1.03;;;0.30;;
30519;SDS011;17300;50.374;8.006;2023-05-10T04:05:23;0.30;;;0.30;;
30519;SDS011;17300;50.374;8.006;2023-05-10T04:07:49;0.30;;;0.30;;
30519;SDS011;17300;50.374;8.006;2023-05-10T04:10:16;0.40;;;0.40;;
30519;SDS011;17300;50.374;8.006;2023-05-10T04:12:43;0.30;;;0.30;;
30519;SDS011;17300;50.374;8.006;2023-05-10T04:15:10;0.30;;;0.30;;
30519;SDS011;17300;50.374;8.006;2023-05-10T04:17:36;0.30;;;0.30;;
30519;SDS011;17300;50.374;8.006;2023-05-10T04:20:05;0.30;;;0.30;;
30519;SDS011;17300;50.374;8.006;2023-05-10T04:22:33;0.30;;;0.30;;
30519;SDS011;17300;50.374;8.006;2023-05-10T04:24:59;0.20;;;0.20;;
30519;SDS011;17300;50.374;8.006;2023-05-10T04:27:26;0.50;;;0.33;;
30519;SDS011;17300;50.374;8.006;2023-05-10T04:29:53;0.40;;;0.40;;
30519;SDS011;17300;50.374;8.006;2023-05-10T04:32:19;0.30;;;0.30;;
30519;SDS011;17300;50.374;8.006;2023-05-10T04:34:46;0.30;;;0.30;;
30519;SDS011;17300;50.374;8.006;2023-05-10T04:37:14;0.40;;;0.37;;
30519;SDS011;17300;50.374;8.006;2023-05-10T04:39:41;1.23;;;0.30;;
30519;SDS011;17300;50.374;8.006;2023-05-10T04:42:07;1.30;;;0.33;;
30519;SDS011;17300;50.374;8.006;2023-05-10T04:44:34;0.30;;;0.30;;
30519;SDS011;17300;50.374;8.006;2023-05-10T04:47:01;0.20;;;0.20;;
30519;SDS011;17300;50.374;8.006;2023-05-10T04:49:28;0.40;;;0.30;;
30519;SDS011;17300;50.374;8.006;2023-05-10T04:51:55;0.93;;;0.50;;
30519;SDS011;17300;50.374;8.006;2023-05-10T04:54:23;0.30;;;0.30;;
30519;SDS011;17300;50.374;8.006;2023-05-10T04:56:50;0.30;;;0.30;;
30519;SDS011;17300;50.374;8.006;2023-05-10T04:59:16;0.60;;;0.50;;
30519;SDS011;17300;50.374;8.006;2023-05-10T05:01:43;0.30;;;0.30;;
30519;SDS011;17300;50.374;8.006;2023-05-10T05:04:10;0.87;;;0.30;;
30519;SDS011;17300;50.374;8.006;2023-05-10T05:06:37;0.30;;;0.30;;
30519;SDS011;17300;50.374;8.006;2023-05-10T05:09:03;0.40;;;0.20;;
30519;SDS011;17300;50.374;8.006;2023-05-10T05:11:31;0.60;;;0.40;;
30519;SDS011;17300;50.374;8.006;2023-05-10T05:13:58;0.20;;;0.20;;
30519;SDS011;17300;50.374;8.006;2023-05-10T05:16:25;0.30;;;0.30;;
30519;SDS011;17300;50.374;8.006;2023-05-10T05:18:51;0.20;;;0.20;;
30519;SDS011;17300;50.374;8.006;2023-05-10T05:21:18;0.20;;;0.20;;
30519;SDS011;17300;50.374;8.006;2023-05-10T05:23:46;0.27;;;0.27;;
30519;SDS011;17300;50.374;8.006;2023-05-10T05:26:13;0.30;;;0.30;;
30519;SDS011;17300;50.374;8.006;2023-05-10T05:28:41;1.90;;;0.40;;
30519;SDS011;17300;50.374;8.006;2023-05-10T05:31:07;1.37;;;0.40;;
30519;SDS011;17300;50.374;8.006;2023-05-10T05:33:34;0.67;;;0.33;;
30519;SDS011;17300;50.374;8.006;2023-05-10T05:36:01;0.30;;;0.30;;
30519;SDS011;17300;50.374;8.006;2023-05-10T05:38:28;0.33;;;0.33;;
30519;SDS011;17300;50.374;8.006;2023-05-10T05:40:55;0.30;;;0.30;;
30519;SDS011;17300;50.374;8.006;2023-05-10T05:43:22;0.63;;;0.63;;
30519;SDS011;17300;50.374;8.006;2023-05-10T05:45:51;0.50;;;0.50;;
30519;SDS011;17300;50.374;8.006;2023-05-10T05:48:18;0.60;;;0.60;;
30519;SDS011;17300;50.374;8.006;2023-05-10T05:50:45;0.50;;;0.50;;
30519;SDS011;17300;50.374;8.006;2023-05-10T05:53:11;0.70;;;0.70;;
30519;SDS011;17300;50.374;8.006;2023-05-10T05:55:38;0.50;;;0.50;;
30519;SDS011;17300;50.374;8.006;2023-05-10T05:58:05;0.43;;;0.43;;
30519;SDS011;17300;50.374;8.006;2023-05-10T06:00:31;1.03;;;0.60;;
30519;SDS011;17300;50.374;8.006;2023-05-10T06:02:59;0.60;;;0.60;;
30519;SDS011;17300;50.374;8.006;2023-05-10T06:05:26;2.30;;;0.60;;
30519;SDS011;17300;50.374;8.006;2023-05-10T06:07:52;0.70;;;0.70;;
30519;SDS011;17300;50.374;8.006;2023-05-10T06:10:19;2.03;;;0.60;;
30519;SDS011;17300;50.374;8.006;2023-05-10T06:12:46;0.70;;;0.67;;
30519;SDS011;17300;50.374;8.006;2023-05-10T06:15:12;0.77;;;0.77;;
30519;SDS011;17300;50.374;8.006;2023-05-10T06:17:39;0.70;;;0.70;;
30519;SDS011;17300;50.374;8.006;2023-05-10T06:20:08;0.70;;;0.70;;
30519;SDS011;17300;50.374;8.006;2023-05-10T06:22:35;3.03;;;0.77;;
30519;SDS011;17300;50.374;8.006;2023-05-10T06:25:02;1.80;;;0.90;;
30519;SDS011;17300;50.374;8.006;2023-05-10T06:27:29;1.13;;;0.80;;
30519;SDS011;17300;50.374;8.006;2023-05-10T06:29:56;0.87;;;0.70;;
30519;SDS011;17300;50.374;8.006;2023-05-10T06:32:22;1.13;;;0.50;;
30519;SDS011;17300;50.374;8.006;2023-05-10T06:34:49;1.13;;;0.80;;
30519;SDS011;17300;50.374;8.006;2023-05-10T06:37:17;1.07;;;0.63;;
30519;SDS011;17300;50.374;8.006;2023-05-10T06:39:44;1.15;;;0.80;;
30519;SDS011;17300;50.374;8.006;2023-05-10T06:42:10;0.77;;;0.50;;
30519;SDS011;17300;50.374;8.006;2023-05-10T06:44:37;0.70;;;0.70;;
30519;SDS011;17300;50.374;8.006;2023-05-10T06:47:04;0.70;;;0.70;;
30519;SDS011;17300;50.374;8.006;2023-05-10T06:49:31;0.70;;;0.70;;
30519;SDS011;17300;50.374;8.006;2023-05-10T06:51:57;0.85;;;0.70;;
30519;SDS011;17300;50.374;8.006;2023-05-10T06:54:25;0.60;;;0.57;;
30519;SDS011;17300;50.374;8.006;2023-05-10T06:56:52;0.70;;;0.70;;
30519;SDS011;17300;50.374;8.006;2023-05-10T06:59:19;0.68;;;0.60;;
30519;SDS011;17300;50.374;8.006;2023-05-10T07:01:46;0.60;;;0.60;;
30519;SDS011;17300;50.374;8.006;2023-05-10T07:04:13;3.83;;;0.80;;
30519;SDS011;17300;50.374;8.006;2023-05-10T07:06:39;0.70;;;0.70;;
30519;SDS011;17300;50.374;8.006;2023-05-10T07:09:06;0.70;;;0.70;;
30519;SDS011;17300;50.374;8.006;2023-05-10T07:11:34;0.70;;;0.70;;
30519;SDS011;17300;50.374;8.006;2023-05-10T07:14:02;0.90;;;0.70;;
30519;SDS011;17300;50.374;8.006;2023-05-10T07:16:29;2.05;;;0.70;;
30519;SDS011;17300;50.374;8.006;2023-05-10T07:18:55;0.60;;;0.60;;
30519;SDS011;17300;50.374;8.006;2023-05-10T07:21:22;1.65;;;0.60;;
30519;SDS011;17300;50.374;8.006;2023-05-10T07:23:49;1.08;;;0.70;;
30519;SDS011;17300;50.374;8.006;2023-05-10T07:26:16;0.80;;;0.70;;
30519;SDS011;17300;50.374;8.006;2023-05-10T07:28:44;0.88;;;0.60;;
30519;SDS011;17300;50.374;8.006;2023-05-10T07:31:11;0.70;;;0.70;;
30519;SDS011;17300;50.374;8.006;2023-05-10T07:33:38;0.60;;;0.60;;
30519;SDS011;17300;50.374;8.006;2023-05-10T07:36:04;0.90;;;0.90;;
30519;SDS011;17300;50.374;8.006;2023-05-10T07:38:31;0.80;;;0.80;;
30519;SDS011;17300;50.374;8.006;2023-05-10T07:40:58;1.00;;;0.80;;
30519;SDS011;17300;50.374;8.006;2023-05-10T07:43:25;0.80;;;0.70;;
30519;SDS011;17300;50.374;8.006;2023-05-10T07:45:53;0.90;;;0.90;;
30519;SDS011;17300;50.374;8.006;2023-05-10T07:48:20;0.80;;;0.70;;
30519;SDS011;17300;50.374;8.006;2023-05-10T07:50:47;0.95;;;0.70;;
30519;SDS011;17300;50.374;8.006;2023-05-10T07:53:13;0.90;;;0.82;;
30519;SDS011;17300;50.374;8.006;2023-05-10T07:55:40;1.00;;;0.90;;
30519;SDS011;17300;50.374;8.006;2023-05-10T07:58:07;0.90;;;0.90;;
30519;SDS011;17300;50.374;8.006;2023-05-10T08:00:33;0.65;;;0.65;;
30519;SDS011;17300;50.374;8.006;2023-05-10T08:03:01;0.80;;;0.80;;
30519;SDS011;17300;50.374;8.006;2023-05-10T08:05:28;1.25;;;0.90;;
30519;SDS011;17300;50.374;8.006;2023-05-10T08:07:55;1.85;;;1.10;;
30519;SDS011;17300;50.374;8.006;2023-05-10T08:10:21;2.22;;;1.50;;
30519;SDS011;17300;50.374;8.006;2023-05-10T08:12:48;2.45;;;1.73;;
30519;SDS011;17300;50.374;8.006;2023-05-10T08:15:15;1.63;;;1.52;;
30519;SDS011;17300;50.374;8.006;2023-05-10T08:17:41;2.10;;;1.60;;
30519;SDS011;17300;50.374;8.006;2023-05-10T08:20:10;1.30;;;1.20;;
30519;SDS011;17300;50.374;8.006;2023-05-10T08:22:41;1.17;;;1.15;;
30519;SDS011;17300;50.374;8.006;2023-05-10T08:25:08;1.92;;;1.17;;
30519;SDS011;17300;50.374;8.006;2023-05-10T08:27:35;0.95;;;0.82;;
30519;SDS011;17300;50.374;8.006;2023-05-10T08:30:02;0.95;;;0.85;;
30519;SDS011;17300;50.374;8.006;2023-05-10T08:32:28;1.13;;;1.02;;
30519;SDS011;17300;50.374;8.006;2023-05-10T08:34:55;1.88;;;1.45;;
30519;SDS011;17300;50.374;8.006;2023-05-10T08:37:24;1.40;;;1.30;;
30519;SDS011;17300;50.374;8.006;2023-05-10T08:39:50;1.50;;;1.40;;
30519;SDS011;17300;50.374;8.006;2023-05-10T08:42:19;1.30;;;1.20;;
30519;SDS011;17300;50.374;8.006;2023-05-10T08:44:48;2.00;;;1.48;;
30519;SDS011;17300;50.374;8.006;2023-05-10T08:47:15;1.25;;;1.15;;
30519;SDS011;17300;50.374;8.006;2023-05-10T08:49:44;2.15;;;1.10;;
30519;SDS011;17300;50.374;8.006;2023-05-10T08:52:14;1.33;;;1.10;;
30519;SDS011;17300;50.374;8.006;2023-05-10T08:54:43;1.50;;;1.02;;
30519;SDS011;17300;50.374;8.006;2023-05-10T08:57:10;1.00;;;0.98;;
30519;SDS011;17300;50.374;8.006;2023-05-10T08:59:37;1.17;;;0.98;;
30519;SDS011;17300;50.374;8.006;2023-05-10T09:02:04;1.30;;;0.80;;
30519;SDS011;17300;50.374;8.006;2023-05-10T09:04:32;1.67;;;0.82;;
30519;SDS011;17300;50.374;8.006;2023-05-10T09:06:59;1.05;;;1.00;;
30519;SDS011;17300;50.374;8.006;2023-05-10T09:09:26;2.72;;;0.90;;
30519;SDS011;17300;50.374;8.006;2023-05-10T09:11:55;1.00;;;0.90;;
30519;SDS011;17300;50.374;8.006;2023-05-10T09:14:22;1.05;;;0.90;;
30519;SDS011;17300;50.374;8.006;2023-05-10T09:16:50;1.38;;;0.70;;
30519;SDS011;17300;50.374;8.006;2023-05-10T09:19:18;1.20;;;0.90;;
30519;SDS011;17300;50.374;8.006;2023-05-10T09:21:45;2.17;;;0.65;;
30519;SDS011;17300;50.374;8.006;2023-05-10T09:24:12;1.25;;;0.60;;
30519;SDS011;17300;50.374;8.006;2023-05-10T09:26:45;0.60;;;0.60;;
30519;SDS011;17300;50.374;8.006;2023-05-10T09:29:14;1.85;;;0.70;;
30519;SDS011;17300;50.374;8.006;2023-05-10T09:31:45;1.58;;;0.60;;
30519;SDS011;17300;50.374;8.006;2023-05-10T09:34:16;0.57;;;0.57;;
30519;SDS011;17300;50.374;8.006;2023-05-10T09:36:53;1.38;;;0.60;;
30519;SDS011;17300;50.374;8.006;2023-05-10T09:39:29;1.27;;;0.70;;
30519;SDS011;17300;50.374;8.006;2023-05-10T09:41:57;0.55;;;0.55;;
30519;SDS011;17300;50.374;8.006;2023-05-10T09:44:27;0.65;;;0.63;;
30519;SDS011;17300;50.374;8.006;2023-05-10T09:46:53;1.05;;;0.60;;
30519;SDS011;17300;50.374;8.006;2023-05-10T09:49:20;0.50;;;0.50;;
30519;SDS011;17300;50.374;8.006;2023-05-10T09:51:47;2.25;;;0.55;;
30519;SDS011;17300;50.374;8.006;2023-05-10T09:54:28;0.40;;;0.40;;
30519;SDS011;17300;50.374;8.006;2023-05-10T09:56:55;0.30;;;0.30;;
30519;SDS011;17300;50.374;8.006;2023-05-10T09:59:22;0.30;;;0.30;;
30519;SDS011;17300;50.374;8.006;2023-05-10T10:01:53;0.40;;;0.40;;
30519;SDS011;17300;50.374;8.006;2023-05-10T10:04:22;0.52;;;0.40;;
30519;SDS011;17300;50.374;8.006;2023-05-10T10:06:57;1.45;;;0.50;;
30519;SDS011;17300;50.374;8.006;2023-05-10T10:09:25;1.25;;;0.30;;
30519;SDS011;17300;50.374;8.006;2023-05-10T10:11:52;0.30;;;0.30;;
30519;SDS011;17300;50.374;8.006;2023-05-10T10:14:21;0.65;;;0.40;;
30519;SDS011;17300;50.374;8.006;2023-05-10T10:16:48;0.55;;;0.40;;
30519;SDS011;17300;50.374;8.006;2023-05-10T10:19:16;0.45;;;0.40;;
30519;SDS011;17300;50.374;8.006;2023-05-10T10:21:44;1.08;;;0.50;;
30519;SDS011;17300;50.374;8.006;2023-05-10T10:24:10;0.30;;;0.30;;
30519;SDS011;17300;50.374;8.006;2023-05-10T10:26:37;1.55;;;0.40;;
30519;SDS011;17300;50.374;8.006;2023-05-10T10:29:10;0.20;;;0.20;;
30519;SDS011;17300;50.374;8.006;2023-05-10T10:31:45;1.40;;;1.30;;
30519;SDS011;17300;50.374;8.006;2023-05-10T10:34:21;1.58;;;0.85;;
30519;SDS011;17300;50.374;8.006;2023-05-10T10:36:55;0.50;;;0.50;;
30519;SDS011;17300;50.374;8.006;2023-05-10T10:39:23;0.45;;;0.45;;
30519;SDS011;17300;50.374;8.006;2023-05-10T10:41:51;0.30;;;0.30;;
30519;SDS011;17300;50.374;8.006;2023-05-10T10:44:22;0.50;;;0.28;;
30519;SDS011;17300;50.374;8.006;2023-05-10T10:47:03;0.30;;;0.30;;
30519;SDS011;17300;50.374;8.006;2023-05-10T10:49:37;0.80;;;0.80;;
30519;SDS011;17300;50.374;8.006;2023-05-10T10:52:14;0.73;;;0.50;;
30519;SDS011;17300;50.374;8.006;2023-05-10T10:54:51;0.40;;;0.40;;
30519;SDS011;17300;50.374;8.006;2023-05-10T10:57:20;0.80;;;0.60;;
30519;SDS011;17300;50.374;8.006;2023-05-10T10:59:47;0.55;;;0.40;;
30519;SDS011;17300;50.374;8.006;2023-05-10T11:02:32;0.55;;;0.50;;
30519;SDS011;17300;50.374;8.006;2023-05-10T11:05:01;0.70;;;0.60;;
30519;SDS011;17300;50.374;8.006;2023-05-10T11:07:52;0.80;;;0.80;;
30519;SDS011;17300;50.374;8.006;2023-05-10T11:10:19;0.70;;;0.70;;
30519;SDS011;17300;50.374;8.006;2023-05-10T11:12:53;1.23;;;1.10;;
30519;SDS011;17300;50.374;8.006;2023-05-10T11:15:28;0.63;;;0.60;;
30519;SDS011;17300;50.374;8.006;2023-05-10T11:17:55;0.70;;;0.70;;
30519;SDS011;17300;50.374;8.006;2023-05-10T11:20:23;0.68;;;0.40;;
30519;SDS011;17300;50.374;8.006;2023-05-10T11:22:58;0.60;;;0.43;;
30519;SDS011;17300;50.374;8.006;2023-05-10T11:25:41;0.50;;;0.50;;
30519;SDS011;17300;50.374;8.006;2023-05-10T11:28:08;0.68;;;0.50;;
30519;SDS011;17300;50.374;8.006;2023-05-10T11:30:35;0.57;;;0.40;;
30519;SDS011;17300;50.374;8.006;2023-05-10T11:33:03;0.40;;;0.40;;
30519;SDS011;17300;50.374;8.006;2023-05-10T11:35:32;0.40;;;0.40;;
30519;SDS011;17300;50.374;8.006;2023-05-10T11:38:04;0.93;;;0.80;;
30519;SDS011;17300;50.374;8.006;2023-05-10T11:40:32;0.90;;;0.88;;
30519;SDS011;17300;50.374;8.006;2023-05-10T11:42:59;0.80;;;0.80;;
30519;SDS011;17300;50.374;8.006;2023-05-10T11:45:25;0.60;;;0.60;;
30519;SDS011;17300;50.374;8.006;2023-05-10T11:47:53;0.43;;;0.43;;
30519;SDS011;17300;50.374;8.006;2023-05-10T11:50:20;0.73;;;0.50;;
30519;SDS011;17300;50.374;8.006;2023-05-10T11:52:51;0.30;;;0.30;;
30519;SDS011;17300;50.374;8.006;2023-05-10T11:55:18;0.28;;;0.28;;
30519;SDS011;17300;50.374;8.006;2023-05-10T11:57:45;0.30;;;0.30;;
30519;SDS011;17300;50.374;8.006;2023-05-10T12:00:12;0.65;;;0.30;;
30519;SDS011;17300;50.374;8.006;2023-05-10T12:02:39;0.30;;;0.30;;
30519;SDS011;17300;50.374;8.006;2023-05-10T12:05:06;0.40;;;0.30;;
30519;SDS011;17300;50.374;8.006;2023-05-10T12:07:34;0.20;;;0.20;;
30519;SDS011;17300;50.374;8.006;2023-05-10T12:10:08;0.82;;;0.25;;
30519;SDS011;17300;50.374;8.006;2023-05-10T12:12:39;0.30;;;0.30;;
30519;SDS011;17300;50.374;8.006;2023-05-10T12:15:10;1.80;;;0.50;;
30519;SDS011;17300;50.374;8.006;2023-05-10T12:17:38;0.20;;;0.20;;
30519;SDS011;17300;50.374;8.006;2023-05-10T12:20:15;0.30;;;0.22;;
30519;SDS011;17300;50.374;8.006;2023-05-10T12:22:44;0.30;;;0.30;;
30519;SDS011;17300;50.374;8.006;2023-05-10T12:25:13;0.20;;;0.20;;
30519;SDS011;17300;50.374;8.006;2023-05-10T12:27:40;0.43;;;0.32;;
30519;SDS011;17300;50.374;8.006;2023-05-10T12:30:17;0.20;;;0.20;;
30519;SDS011;17300;50.374;8.006;2023-05-10T12:32:46;0.95;;;0.40;;
30519;SDS011;17300;50.374;8.006;2023-05-10T12:35:12;0.20;;;0.20;;
30519;SDS011;17300;50.374;8.006;2023-05-10T12:37:39;0.30;;;0.30;;
30519;SDS011;17300;50.374;8.006;2023-05-10T12:40:06;0.40;;;0.40;;
30519;SDS011;17300;50.374;8.006;2023-05-10T12:42:35;0.65;;;0.30;;
30519;SDS011;17300;50.374;8.006;2023-05-10T12:45:03;0.20;;;0.20;;
30519;SDS011;17300;50.374;8.006;2023-05-10T12:47:31;0.20;;;0.20;;
30519;SDS011;17300;50.374;8.006;2023-05-10T12:49:58;0.20;;;0.20;;
30519;SDS011;17300;50.374;8.006;2023-05-10T12:52:26;0.22;;;0.22;;
30519;SDS011;17300;50.374;8.006;2023-05-10T12:54:53;0.55;;;0.20;;
30519;SDS011;17300;50.374;8.006;2023-05-10T12:57:19;0.55;;;0.20;;
30519;SDS011;17300;50.374;8.006;2023-05-10T12:59:48;0.20;;;0.20;;
30519;SDS011;17300;50.374;8.006;2023-05-10T13:02:15;1.67;;;0.30;;
30519;SDS011;17300;50.374;8.006;2023-05-10T13:04:44;0.30;;;0.20;;
30519;SDS011;17300;50.374;8.006;2023-05-10T13:07:11;0.20;;;0.20;;
30519;SDS011;17300;50.374;8.006;2023-05-10T13:09:38;0.25;;;0.25;;
30519;SDS011;17300;50.374;8.006;2023-05-10T13:12:05;0.50;;;0.30;;
30519;SDS011;17300;50.374;8.006;2023-05-10T13:14:32;0.20;;;0.20;;
30519;SDS011;17300;50.374;8.006;2023-05-10T13:17:00;0.20;;;0.20;;
30519;SDS011;17300;50.374;8.006;2023-05-10T13:19:26;0.30;;;0.30;;
30519;SDS011;17300;50.374;8.006;2023-05-10T13:21:53;0.20;;;0.20;;
30519;SDS011;17300;50.374;8.006;2023-05-10T13:24:19;0.22;;;0.22;;
30519;SDS011;17300;50.374;8.006;2023-05-10T13:26:46;0.35;;;0.20;;
30519;SDS011;17300;50.374;8.006;2023-05-10T13:29:13;0.30;;;0.30;;
30519;SDS011;17300;50.374;8.006;2023-05-10T13:31:42;0.20;;;0.10;;
30519;SDS011;17300;50.374;8.006;2023-05-10T13:34:10;0.50;;;0.30;;
30519;SDS011;17300;50.374;8.006;2023-05-10T13:36:37;0.20;;;0.20;;
30519;SDS011;17300;50.374;8.006;2023-05-10T13:39:03;0.20;;;0.20;;
30519;SDS011;17300;50.374;8.006;2023-05-10T13:41:30;0.32;;;0.30;;
30519;SDS011;17300;50.374;8.006;2023-05-10T13:43:57;0.20;;;0.20;;
30519;SDS011;17300;50.374;8.006;2023-05-10T13:46:23;0.30;;;0.30;;
30519;SDS011;17300;50.374;8.006;2023-05-10T13:48:50;0.20;;;0.20;;
30519;SDS011;17300;50.374;8.006;2023-05-10T13:51:18;0.20;;;0.20;;
30519;SDS011;17300;50.374;8.006;2023-05-10T13:53:45;0.47;;;0.43;;
30519;SDS011;17300;50.374;8.006;2023-05-10T13:56:12;1.65;;;0.77;;
30519;SDS011;17300;50.374;8.006;2023-05-10T13:58:39;0.70;;;0.70;;
30519;SDS011;17300;50.374;8.006;2023-05-10T14:01:06;0.70;;;0.70;;
30519;SDS011;17300;50.374;8.006;2023-05-10T14:03:32;0.40;;;0.40;;
30519;SDS011;17300;50.374;8.006;2023-05-10T14:05:59;0.55;;;0.50;;
30519;SDS011;17300;50.374;8.006;2023-05-10T14:08:27;0.77;;;0.55;;
30519;SDS011;17300;50.374;8.006;2023-05-10T14:10:54;0.93;;;0.30;;
30519;SDS011;17300;50.374;8.006;2023-05-10T14:13:22;0.70;;;0.40;;
30519;SDS011;17300;50.374;8.006;2023-05-10T14:15:49;0.40;;;0.40;;
30519;SDS011;17300;50.374;8.006;2023-05-10T14:18:16;0.25;;;0.20;;
30519;SDS011;17300;50.374;8.006;2023-05-10T14:20:43;0.50;;;0.40;;
30519;SDS011;17300;50.374;8.006;2023-05-10T14:23:10;0.30;;;0.30;;
30519;SDS011;17300;50.374;8.006;2023-05-10T14:25:39;0.32;;;0.22;;
30519;SDS011;17300;50.374;8.006;2023-05-10T14:28:06;0.82;;;0.40;;
30519;SDS011;17300;50.374;8.006;2023-05-10T14:30:32;1.15;;;0.38;;
30519;SDS011;17300;50.374;8.006;2023-05-10T14:33:00;0.30;;;0.30;;
30519;SDS011;17300;50.374;8.006;2023-05-10T14:35:27;0.65;;;0.40;;
30519;SDS011;17300;50.374;8.006;2023-05-10T14:37:55;0.60;;;0.30;;
30519;SDS011;17300;50.374;8.006;2023-05-10T14:40:22;0.65;;;0.30;;
30519;SDS011;17300;50.374;8.006;2023-05-10T14:42:51;0.20;;;0.20;;
30519;SDS011;17300;50.374;8.006;2023-05-10T14:45:18;0.22;;;0.22;;
30519;SDS011;17300;50.374;8.006;2023-05-10T14:47:45;0.20;;;0.20;;
30519;SDS011;17300;50.374;8.006;2023-05-10T14:50:12;2.05;;;0.20;;
30519;SDS011;17300;50.374;8.006;2023-05-10T14:52:39;0.20;;;0.20;;
30519;SDS011;17300;50.374;8.006;2023-05-10T14:55:06;0.30;;;0.30;;
30519;SDS011;17300;50.374;8.006;2023-05-10T14:57:33;0.88;;;0.20;;
30519;SDS011;17300;50.374;8.006;2023-05-10T15:00:02;0.40;;;0.30;;